Time;durP1;ratioP1;P1;durP2;ratioP2;P2;SDS_P1;SDS_P2;PMS_P1;PMS_P2;Temp;Humidity;BMP_temperature;BMP_pressure;BME280_temperature;BME280_humidity;BME280_pressure;Samples;Min_cycle;Max_cycle;Signal;HPM_P1;HPM_P2
2021/10/14 00:00:40;;;;;;;0.50;0.50;;;;;;;;;;5074979;28;20206;-64
2021/10/14 00:03:06;;;;;;;0.40;0.40;;;;;;;;;;5063309;28;20433;-65
2021/10/14 00:05:32;;;;;;;0.50;0.50;;;;;;;;;;5055236;28;20562;-64
2021/10/14 00:07:58;;;;;;;0.50;0.50;;;;;;;;;;5055233;28;20741;-64
2021/10/14 00:10:24;;;;;;;0.40;0.40;;;;;;;;;;5054378;28;20226;-65
2021/10/14 00:12:50;;;;;;;0.43;0.43;;;;;;;;;;5055296;28;20417;-65
2021/10/14 00:15:16;;;;;;;0.45;0.45;;;;;;;;;;5055233;28;20309;-64
2021/10/14 00:17:42;;;;;;;0.40;0.40;;;;;;;;;;5055808;28;20217;-64
2021/10/14 00:20:09;;;;;;;0.60;0.60;;;;;;;;;;5054434;28;20739;-64
2021/10/14 00:22:35;;;;;;;0.40;0.40;;;;;;;;;;5036231;28;20182;-64
2021/10/14 00:25:01;;;;;;;0.50;0.50;;;;;;;;;;5054335;28;20616;-64
2021/10/14 00:27:28;;;;;;;0.40;0.40;;;;;;;;;;5054769;28;20429;-64
2021/10/14 00:29:53;;;;;;;0.40;0.40;;;;;;;;;;5054736;28;20256;-64
2021/10/14 00:32:19;;;;;;;0.43;0.43;;;;;;;;;;5036171;28;20208;-64
2021/10/14 00:34:45;;;;;;;0.40;0.40;;;;;;;;;;5036503;28;20440;-64
2021/10/14 00:37:11;;;;;;;0.40;0.40;;;;;;;;;;5054714;28;20463;-64
2021/10/14 00:39:37;;;;;;;0.50;0.50;;;;;;;;;;5054315;28;20819;-64
2021/10/14 00:42:03;;;;;;;0.40;0.40;;;;;;;;;;5054282;28;20250;-64
2021/10/14 00:44:41;;;;;;;0.40;0.40;;;;;;;;;;5053921;28;20441;-65
2021/10/14 00:47:07;;;;;;;0.40;0.40;;;;;;;;;;5036292;28;21128;-64
2021/10/14 00:49:33;;;;;;;0.40;0.40;;;;;;;;;;5054637;28;20179;-64
2021/10/14 00:51:59;;;;;;;0.50;0.50;;;;;;;;;;5054011;28;20435;-64
2021/10/14 00:54:25;;;;;;;0.50;0.50;;;;;;;;;;5053632;28;20502;-64
2021/10/14 00:56:51;;;;;;;0.50;0.50;;;;;;;;;;5054241;28;20464;-64
2021/10/14 00:59:17;;;;;;;0.50;0.50;;;;;;;;;;5053949;28;20539;-64
2021/10/14 01:01:43;;;;;;;0.40;0.40;;;;;;;;;;5053922;28;20440;-64
2021/10/14 01:04:10;;;;;;;0.50;0.50;;;;;;;;;;5053954;28;20637;-64
2021/10/14 01:06:35;;;;;;;0.40;0.40;;;;;;;;;;5053634;28;20410;-64
2021/10/14 01:09:02;;;;;;;0.40;0.40;;;;;;;;;;5053783;28;20643;-64
2021/10/14 01:11:28;;;;;;;0.40;0.40;;;;;;;;;;5053473;28;20935;-64
2021/10/14 01:13:54;;;;;;;0.50;0.50;;;;;;;;;;5053168;28;20202;-65
2021/10/14 01:16:20;;;;;;;0.40;0.40;;;;;;;;;;5053632;28;20172;-64
2021/10/14 01:18:46;;;;;;;0.50;0.50;;;;;;;;;;5053045;28;20417;-64
2021/10/14 01:21:12;;;;;;;0.40;0.40;;;;;;;;;;5053068;28;20975;-64
2021/10/14 01:23:38;;;;;;;0.40;0.40;;;;;;;;;;5053674;28;20191;-64
2021/10/14 01:26:04;;;;;;;0.40;0.40;;;;;;;;;;5052256;28;20185;-64
2021/10/14 01:28:30;;;;;;;0.40;0.40;;;;;;;;;;5034767;28;20177;-64
2021/10/14 01:30:58;;;;;;;0.50;0.50;;;;;;;;;;5053187;28;20186;-64
2021/10/14 01:33:24;;;;;;;0.40;0.40;;;;;;;;;;5053244;28;20200;-64
2021/10/14 01:35:50;;;;;;;0.50;0.50;;;;;;;;;;5053423;28;20603;-64
2021/10/14 01:38:18;;;;;;;0.50;0.50;;;;;;;;;;5053141;28;20178;-64
2021/10/14 01:40:44;;;;;;;0.50;0.50;;;;;;;;;;5052595;28;20213;-64
2021/10/14 01:43:13;;;;;;;0.50;0.50;;;;;;;;;;5053201;28;20261;-64
2021/10/14 01:45:39;;;;;;;0.40;0.40;;;;;;;;;;5052901;28;20198;-64
2021/10/14 01:48:05;;;;;;;0.50;0.50;;;;;;;;;;5052762;28;20189;-64
2021/10/14 01:50:31;;;;;;;0.40;0.40;;;;;;;;;;5052382;28;20261;-65
2021/10/14 01:52:57;;;;;;;0.40;0.40;;;;;;;;;;5052936;28;20441;-64
2021/10/14 01:55:23;;;;;;;0.40;0.40;;;;;;;;;;5052598;28;20964;-64
2021/10/14 01:57:49;;;;;;;0.40;0.40;;;;;;;;;;5053090;28;20765;-64
2021/10/14 02:00:15;;;;;;;0.40;0.40;;;;;;;;;;5052182;28;20954;-65
2021/10/14 02:02:41;;;;;;;0.50;0.50;;;;;;;;;;5052441;28;20429;-64
2021/10/14 02:05:07;;;;;;;0.40;0.40;;;;;;;;;;5052394;28;20193;-64
2021/10/14 02:07:33;;;;;;;0.50;0.50;;;;;;;;;;5052198;28;20864;-64
2021/10/14 02:09:59;;;;;;;0.40;0.40;;;;;;;;;;5052815;28;20186;-64
2021/10/14 02:12:26;;;;;;;0.40;0.40;;;;;;;;;;5052111;28;20688;-64
2021/10/14 02:14:52;;;;;;;0.50;0.50;;;;;;;;;;5052095;28;20453;-64
2021/10/14 02:17:18;;;;;;;0.50;0.50;;;;;;;;;;5051875;28;20191;-64
2021/10/14 02:19:44;;;;;;;0.40;0.40;;;;;;;;;;5052049;28;20201;-64
2021/10/14 02:22:11;;;;;;;0.50;0.50;;;;;;;;;;5051858;28;20512;-64
2021/10/14 02:24:37;;;;;;;0.40;0.40;;;;;;;;;;5051775;28;20453;-64
2021/10/14 02:27:03;;;;;;;0.50;0.50;;;;;;;;;;5052044;28;20193;-64
2021/10/14 02:29:29;;;;;;;0.40;0.40;;;;;;;;;;5051845;28;20519;-64
2021/10/14 02:31:54;;;;;;;0.50;0.50;;;;;;;;;;5052184;28;20262;-64
2021/10/14 02:34:21;;;;;;;0.50;0.50;;;;;;;;;;5033796;28;20456;-64
2021/10/14 02:36:47;;;;;;;0.40;0.40;;;;;;;;;;5051850;28;20415;-64
2021/10/14 02:39:13;;;;;;;0.40;0.40;;;;;;;;;;5051968;28;20182;-64
2021/10/14 02:41:39;;;;;;;0.40;0.40;;;;;;;;;;5051966;28;20422;-64
2021/10/14 02:44:05;;;;;;;0.50;0.50;;;;;;;;;;5033876;28;20449;-64
2021/10/14 02:46:31;;;;;;;0.60;0.60;;;;;;;;;;5051684;28;20174;-64
2021/10/14 02:48:57;;;;;;;0.40;0.40;;;;;;;;;;5051726;28;20194;-65
2021/10/14 02:51:23;;;;;;;0.50;0.50;;;;;;;;;;5051217;28;20666;-64
2021/10/14 02:53:49;;;;;;;0.50;0.50;;;;;;;;;;5051594;28;20475;-64
2021/10/14 02:56:14;;;;;;;0.50;0.50;;;;;;;;;;5051719;28;20433;-64
2021/10/14 02:58:40;;;;;;;0.50;0.50;;;;;;;;;;5051398;28;20665;-64
2021/10/14 03:01:06;;;;;;;0.40;0.40;;;;;;;;;;5051508;28;20992;-64
2021/10/14 03:03:33;;;;;;;0.50;0.50;;;;;;;;;;5051711;28;20450;-64
2021/10/14 03:05:59;;;;;;;0.40;0.40;;;;;;;;;;5051661;28;20420;-64
2021/10/14 03:08:25;;;;;;;0.40;0.40;;;;;;;;;;5051036;28;20182;-64
2021/10/14 03:10:51;;;;;;;0.52;0.52;;;;;;;;;;5051645;28;20549;-65
2021/10/14 03:13:17;;;;;;;0.50;0.50;;;;;;;;;;5051458;28;20206;-66
2021/10/14 03:15:43;;;;;;;0.50;0.50;;;;;;;;;;5051716;28;20420;-65
2021/10/14 03:18:09;;;;;;;0.40;0.40;;;;;;;;;;5052043;28;20403;-65
2021/10/14 03:20:35;;;;;;;0.40;0.40;;;;;;;;;;5050760;28;20244;-65
2021/10/14 03:23:01;;;;;;;0.40;0.40;;;;;;;;;;5051282;28;20431;-65
2021/10/14 03:25:27;;;;;;;0.40;0.40;;;;;;;;;;5051779;28;20180;-65
2021/10/14 03:27:53;;;;;;;0.50;0.50;;;;;;;;;;5050956;28;20507;-65
2021/10/14 03:30:19;;;;;;;0.40;0.40;;;;;;;;;;5051001;28;20671;-65
2021/10/14 03:32:45;;;;;;;0.40;0.40;;;;;;;;;;5051658;28;20406;-65
2021/10/14 03:35:11;;;;;;;0.50;0.50;;;;;;;;;;5051573;28;21424;-65
2021/10/14 03:37:37;;;;;;;0.50;0.50;;;;;;;;;;5033858;28;20465;-65
2021/10/14 03:40:03;;;;;;;0.50;0.50;;;;;;;;;;5051382;28;20211;-64
2021/10/14 03:42:29;;;;;;;0.47;0.47;;;;;;;;;;5051007;28;20818;-65
2021/10/14 03:44:55;;;;;;;0.50;0.50;;;;;;;;;;5051617;28;20283;-65
2021/10/14 03:47:21;;;;;;;0.50;0.50;;;;;;;;;;5051629;28;20402;-64
2021/10/14 03:49:47;;;;;;;0.50;0.50;;;;;;;;;;5051099;28;20419;-65
2021/10/14 03:52:13;;;;;;;0.50;0.50;;;;;;;;;;5051154;28;20988;-65
2021/10/14 03:54:39;;;;;;;0.40;0.40;;;;;;;;;;5050405;28;20448;-65
2021/10/14 03:57:05;;;;;;;0.53;0.53;;;;;;;;;;5051142;28;20424;-65
2021/10/14 03:59:31;;;;;;;0.40;0.40;;;;;;;;;;5051088;28;20454;-65
2021/10/14 04:01:57;;;;;;;0.50;0.50;;;;;;;;;;5050858;28;20417;-65
2021/10/14 04:04:23;;;;;;;0.40;0.40;;;;;;;;;;5050365;28;20554;-65
2021/10/14 04:06:49;;;;;;;0.40;0.40;;;;;;;;;;5051202;28;20405;-65
2021/10/14 04:09:15;;;;;;;0.50;0.50;;;;;;;;;;5051305;28;20665;-65
2021/10/14 04:11:41;;;;;;;0.47;0.47;;;;;;;;;;5051082;28;20404;-65
2021/10/14 04:14:07;;;;;;;0.50;0.50;;;;;;;;;;5051021;28;20268;-65
2021/10/14 04:16:33;;;;;;;0.47;0.47;;;;;;;;;;5032346;28;20780;-65
2021/10/14 04:18:59;;;;;;;0.43;0.43;;;;;;;;;;5051056;28;20770;-64
2021/10/14 04:21:25;;;;;;;0.50;0.50;;;;;;;;;;5032982;28;21098;-65
2021/10/14 04:23:52;;;;;;;0.60;0.60;;;;;;;;;;5050885;28;20452;-65
2021/10/14 04:26:18;;;;;;;0.40;0.40;;;;;;;;;;5049672;28;20170;-65
2021/10/14 04:28:44;;;;;;;0.50;0.50;;;;;;;;;;5050798;28;20208;-65
2021/10/14 04:31:10;;;;;;;0.60;0.60;;;;;;;;;;5050646;28;20413;-65
2021/10/14 04:33:36;;;;;;;0.40;0.40;;;;;;;;;;5050738;28;20570;-65
2021/10/14 04:36:03;;;;;;;0.40;0.40;;;;;;;;;;5051383;28;20186;-64
2021/10/14 04:38:29;;;;;;;0.50;0.50;;;;;;;;;;5050440;28;20183;-65
2021/10/14 04:40:55;;;;;;;0.50;0.50;;;;;;;;;;5053755;28;20198;-64
2021/10/14 04:43:23;;;;;;;0.40;0.40;;;;;;;;;;5054248;28;20203;-65
2021/10/14 04:45:49;;;;;;;0.40;0.40;;;;;;;;;;5054359;28;20181;-65
2021/10/14 04:48:14;;;;;;;0.50;0.50;;;;;;;;;;5054119;28;20167;-65
2021/10/14 04:50:40;;;;;;;0.50;0.50;;;;;;;;;;5053292;28;20922;-64
2021/10/14 04:53:06;;;;;;;0.43;0.43;;;;;;;;;;5053781;28;20808;-64
2021/10/14 04:55:32;;;;;;;0.60;0.60;;;;;;;;;;5054179;28;20409;-65
2021/10/14 04:57:59;;;;;;;0.40;0.40;;;;;;;;;;5054080;28;20455;-65
2021/10/14 05:00:25;;;;;;;0.50;0.50;;;;;;;;;;5052800;28;20456;-64
2021/10/14 05:02:51;;;;;;;0.50;0.50;;;;;;;;;;5053940;28;20670;-64
2021/10/14 05:05:17;;;;;;;0.43;0.43;;;;;;;;;;5035712;28;20427;-65
2021/10/14 05:07:43;;;;;;;0.40;0.40;;;;;;;;;;5053989;28;20534;-65
2021/10/14 05:10:09;;;;;;;0.40;0.40;;;;;;;;;;5053193;28;20200;-64
2021/10/14 05:12:36;;;;;;;0.50;0.50;;;;;;;;;;5053208;28;20424;-65
2021/10/14 05:15:06;;;;;;;0.40;0.40;;;;;;;;;;5053733;28;20197;-64
2021/10/14 05:17:32;;;;;;;0.40;0.40;;;;;;;;;;5053567;28;20174;-65
2021/10/14 05:19:58;;;;;;;0.40;0.40;;;;;;;;;;5053578;28;20204;-65
2021/10/14 05:22:24;;;;;;;0.50;0.50;;;;;;;;;;5052593;28;20423;-63
2021/10/14 05:24:50;;;;;;;0.40;0.40;;;;;;;;;;5053220;28;20680;-64
2021/10/14 05:27:16;;;;;;;0.50;0.50;;;;;;;;;;5053165;28;20945;-64
2021/10/14 05:29:42;;;;;;;0.50;0.50;;;;;;;;;;5053545;28;20447;-66
2021/10/14 05:32:08;;;;;;;0.50;0.50;;;;;;;;;;5052604;28;20483;-66
2021/10/14 05:34:34;;;;;;;0.50;0.50;;;;;;;;;;5034671;28;20445;-66
2021/10/14 05:37:00;;;;;;;0.40;0.40;;;;;;;;;;5054644;28;20412;-64
2021/10/14 05:39:26;;;;;;;0.50;0.50;;;;;;;;;;5055602;28;20963;-64
2021/10/14 05:41:52;;;;;;;0.50;0.50;;;;;;;;;;5053086;28;20878;-64
2021/10/14 05:44:18;;;;;;;0.50;0.50;;;;;;;;;;5052356;28;20208;-64
2021/10/14 05:46:44;;;;;;;0.40;0.40;;;;;;;;;;5053445;28;20398;-64
2021/10/14 05:49:10;;;;;;;0.40;0.40;;;;;;;;;;5052907;28;20943;-64
2021/10/14 05:51:36;;;;;;;0.40;0.40;;;;;;;;;;5051899;28;20186;-64
2021/10/14 05:54:02;;;;;;;0.40;0.40;;;;;;;;;;5082740;22;20468;-67
2021/10/14 05:56:28;;;;;;;0.40;0.40;;;;;;;;;;5048351;28;20281;-68
2021/10/14 05:58:54;;;;;;;0.40;0.40;;;;;;;;;;5052855;28;20176;-67
2021/10/14 06:01:20;;;;;;;0.40;0.40;;;;;;;;;;5052315;28;20209;-67
2021/10/14 06:03:46;;;;;;;0.40;0.40;;;;;;;;;;5052493;28;20197;-67
2021/10/14 06:06:12;;;;;;;0.40;0.40;;;;;;;;;;5052324;28;20269;-67
2021/10/14 06:08:38;;;;;;;0.40;0.40;;;;;;;;;;5072440;28;20614;-67
2021/10/14 06:11:04;;;;;;;0.50;0.50;;;;;;;;;;5066991;28;20174;-67
2021/10/14 06:13:30;;;;;;;0.50;0.50;;;;;;;;;;5052644;28;20962;-68
2021/10/14 06:15:56;;;;;;;0.40;0.40;;;;;;;;;;5064519;28;20467;-68
2021/10/14 06:18:23;;;;;;;0.40;0.40;;;;;;;;;;5055835;28;20520;-66
2021/10/14 06:20:49;;;;;;;0.50;0.50;;;;;;;;;;5050714;28;20464;-66
2021/10/14 06:23:15;;;;;;;0.43;0.43;;;;;;;;;;5052217;28;20232;-66
2021/10/14 06:25:41;;;;;;;0.50;0.50;;;;;;;;;;5060689;28;20440;-65
2021/10/14 06:28:07;;;;;;;0.40;0.40;;;;;;;;;;5068902;28;20173;-66
2021/10/14 06:30:33;;;;;;;0.40;0.40;;;;;;;;;;5051592;28;20427;-66
2021/10/14 06:32:59;;;;;;;0.40;0.40;;;;;;;;;;5057796;28;20903;-66
2021/10/14 06:35:26;;;;;;;0.50;0.50;;;;;;;;;;5071752;28;20573;-66
2021/10/14 06:37:53;;;;;;;0.50;0.50;;;;;;;;;;5067679;28;20183;-66
2021/10/14 06:40:19;;;;;;;0.40;0.40;;;;;;;;;;5054680;28;20284;-66
2021/10/14 06:42:45;;;;;;;0.50;0.50;;;;;;;;;;5071756;28;20632;-66
2021/10/14 06:45:11;;;;;;;0.40;0.40;;;;;;;;;;5070344;28;21076;-67
2021/10/14 06:47:37;;;;;;;0.40;0.40;;;;;;;;;;5070729;28;20507;-66
2021/10/14 06:50:04;;;;;;;0.50;0.50;;;;;;;;;;5055322;28;20429;-66
2021/10/14 06:52:30;;;;;;;0.50;0.50;;;;;;;;;;5071278;28;20444;-66
2021/10/14 06:54:56;;;;;;;0.40;0.40;;;;;;;;;;5050886;28;20277;-66
2021/10/14 06:57:22;;;;;;;0.40;0.40;;;;;;;;;;5062266;28;20553;-66
2021/10/14 06:59:48;;;;;;;0.50;0.50;;;;;;;;;;5051119;28;20466;-66
2021/10/14 07:02:14;;;;;;;0.50;0.50;;;;;;;;;;5051274;28;20493;-66
2021/10/14 07:04:40;;;;;;;0.40;0.40;;;;;;;;;;5051509;28;20798;-66
2021/10/14 07:07:06;;;;;;;0.40;0.40;;;;;;;;;;5051159;28;20909;-66
2021/10/14 07:09:32;;;;;;;0.50;0.50;;;;;;;;;;5051125;28;20425;-67
2021/10/14 07:12:00;;;;;;;0.40;0.40;;;;;;;;;;5050460;28;20754;-67
2021/10/14 07:14:26;;;;;;;0.40;0.40;;;;;;;;;;5050101;28;20580;-66
2021/10/14 07:16:52;;;;;;;0.50;0.50;;;;;;;;;;5050255;28;20195;-66
2021/10/14 07:19:19;;;;;;;0.40;0.40;;;;;;;;;;5051520;28;20169;-66
2021/10/14 07:21:45;;;;;;;0.40;0.40;;;;;;;;;;5051625;28;20540;-67
2021/10/14 07:24:11;;;;;;;0.40;0.40;;;;;;;;;;5049494;28;20196;-67
2021/10/14 07:26:37;;;;;;;0.40;0.40;;;;;;;;;;5050498;28;20186;-66
2021/10/14 07:29:04;;;;;;;0.50;0.50;;;;;;;;;;5066650;28;20168;-66
2021/10/14 07:31:31;;;;;;;0.50;0.50;;;;;;;;;;5051226;28;20401;-67
2021/10/14 07:33:57;;;;;;;0.50;0.50;;;;;;;;;;5051021;28;20192;-66
2021/10/14 07:36:22;;;;;;;0.40;0.40;;;;;;;;;;5066111;28;20233;-66
2021/10/14 07:38:49;;;;;;;0.40;0.40;;;;;;;;;;5051274;28;20497;-66
2021/10/14 07:41:14;;;;;;;0.40;0.40;;;;;;;;;;5050605;28;20570;-67
2021/10/14 07:43:40;;;;;;;0.40;0.40;;;;;;;;;;5050904;28;20282;-66
2021/10/14 07:46:09;;;;;;;0.40;0.40;;;;;;;;;;5066574;28;20464;-67
2021/10/14 07:48:36;;;;;;;0.40;0.40;;;;;;;;;;5051417;28;20448;-67
2021/10/14 07:51:02;;;;;;;0.40;0.40;;;;;;;;;;5050533;28;20200;-67
2021/10/14 07:53:28;;;;;;;0.40;0.40;;;;;;;;;;5051252;28;20210;-67
2021/10/14 07:55:54;;;;;;;0.40;0.40;;;;;;;;;;5050673;28;20305;-67
2021/10/14 07:58:20;;;;;;;0.40;0.40;;;;;;;;;;5051175;28;20271;-66
2021/10/14 08:00:46;;;;;;;0.40;0.40;;;;;;;;;;5050763;28;20461;-67
2021/10/14 08:03:12;;;;;;;0.40;0.40;;;;;;;;;;5050685;28;20457;-66
2021/10/14 08:05:38;;;;;;;0.50;0.50;;;;;;;;;;5050995;28;20275;-66
2021/10/14 08:08:05;;;;;;;0.40;0.40;;;;;;;;;;5050783;28;20270;-66
2021/10/14 08:10:31;;;;;;;0.50;0.50;;;;;;;;;;5050848;28;20177;-66
2021/10/14 08:12:57;;;;;;;0.40;0.40;;;;;;;;;;5050609;28;20180;-66
2021/10/14 08:15:24;;;;;;;0.40;0.40;;;;;;;;;;5053365;28;20203;-66
2021/10/14 08:17:50;;;;;;;0.50;0.50;;;;;;;;;;5070236;28;20271;-66
2021/10/14 08:20:16;;;;;;;0.40;0.40;;;;;;;;;;5069641;28;20217;-67
2021/10/14 08:22:42;;;;;;;0.50;0.50;;;;;;;;;;5054803;28;20178;-66
2021/10/14 08:25:09;;;;;;;0.50;0.50;;;;;;;;;;5054117;28;20191;-66
2021/10/14 08:27:35;;;;;;;0.40;0.40;;;;;;;;;;5070013;28;20404;-67
2021/10/14 08:30:01;;;;;;;0.40;0.40;;;;;;;;;;5054602;28;20199;-66
2021/10/14 08:32:27;;;;;;;0.30;0.30;;;;;;;;;;5054430;28;20178;-66
2021/10/14 08:34:53;;;;;;;0.40;0.40;;;;;;;;;;5069557;28;20203;-66
2021/10/14 08:37:22;;;;;;;0.40;0.40;;;;;;;;;;5069738;28;20468;-67
2021/10/14 08:39:49;;;;;;;0.40;0.40;;;;;;;;;;5052493;28;20282;-66
2021/10/14 08:42:15;;;;;;;0.50;0.50;;;;;;;;;;5054207;28;20801;-66
2021/10/14 08:44:41;;;;;;;0.40;0.40;;;;;;;;;;5053992;28;20184;-66
2021/10/14 08:47:08;;;;;;;0.40;0.40;;;;;;;;;;5053671;28;20218;-68
2021/10/14 08:49:34;;;;;;;0.40;0.40;;;;;;;;;;5052904;28;20207;-67
2021/10/14 08:52:00;;;;;;;0.40;0.40;;;;;;;;;;5053999;28;20215;-67
2021/10/14 08:54:26;;;;;;;0.40;0.40;;;;;;;;;;5053987;28;20452;-67
2021/10/14 08:56:51;;;;;;;0.40;0.40;;;;;;;;;;5052403;28;20648;-68
2021/10/14 08:59:20;;;;;;;0.40;0.40;;;;;;;;;;5053952;28;20429;-67
2021/10/14 09:02:05;;;;;;;0.40;0.40;;;;;;;;;;5052627;28;20414;-68
2021/10/14 09:04:32;;;;;;;0.40;0.40;;;;;;;;;;5053959;28;20180;-67
2021/10/14 09:07:14;;;;;;;0.40;0.40;;;;;;;;;;5054009;28;20187;-68
2021/10/14 09:09:41;;;;;;;0.40;0.40;;;;;;;;;;5053140;28;20176;-68
2021/10/14 09:12:07;;;;;;;0.40;0.40;;;;;;;;;;5053612;28;20683;-68
2021/10/14 09:14:34;;;;;;;0.35;0.35;;;;;;;;;;5053593;28;20337;-68
2021/10/14 09:17:00;;;;;;;0.30;0.30;;;;;;;;;;5053774;28;20180;-68
2021/10/14 09:19:29;;;;;;;0.30;0.30;;;;;;;;;;5053413;28;20179;-68
2021/10/14 09:22:01;;;;;;;0.30;0.30;;;;;;;;;;5052554;28;20409;-68
2021/10/14 09:24:35;;;;;;;0.40;0.40;;;;;;;;;;5073047;28;20440;-68
2021/10/14 09:27:05;;;;;;;0.30;0.30;;;;;;;;;;5072306;28;20908;-68
2021/10/14 09:29:33;;;;;;;0.30;0.30;;;;;;;;;;5073681;28;20171;-68
2021/10/14 09:32:00;;;;;;;0.30;0.30;;;;;;;;;;5072771;28;20410;-68
2021/10/14 09:34:32;;;;;;;0.30;0.30;;;;;;;;;;5072734;28;20400;-69
2021/10/14 09:37:00;;;;;;;0.30;0.30;;;;;;;;;;5073107;28;20410;-68
2021/10/14 09:39:26;;;;;;;0.30;0.30;;;;;;;;;;5055369;28;20915;-68
2021/10/14 09:41:52;;;;;;;0.30;0.30;;;;;;;;;;5068069;28;20403;-66
2021/10/14 09:44:19;;;;;;;0.30;0.30;;;;;;;;;;5052445;28;20423;-66
2021/10/14 09:46:49;;;;;;;0.30;0.20;;;;;;;;;;5052573;28;20935;-65
2021/10/14 09:49:23;;;;;;;0.20;0.20;;;;;;;;;;5067943;28;20411;-65
2021/10/14 09:51:49;;;;;;;0.30;0.30;;;;;;;;;;5052666;28;20486;-66
2021/10/14 09:54:15;;;;;;;0.20;0.20;;;;;;;;;;5052770;28;20452;-67
2021/10/14 09:56:41;;;;;;;0.20;0.20;;;;;;;;;;5051586;28;21024;-67
2021/10/14 09:59:07;;;;;;;0.20;0.20;;;;;;;;;;5052927;28;20385;-67
2021/10/14 10:01:35;;;;;;;0.20;0.20;;;;;;;;;;5067643;28;20877;-67
2021/10/14 10:04:01;;;;;;;0.20;0.20;;;;;;;;;;5052453;28;20493;-67
2021/10/14 10:06:28;;;;;;;0.20;0.20;;;;;;;;;;5052750;28;20400;-67
2021/10/14 10:08:56;;;;;;;0.20;0.20;;;;;;;;;;5052621;28;20627;-68
2021/10/14 10:11:24;;;;;;;0.20;0.20;;;;;;;;;;5052286;28;20418;-68
2021/10/14 10:13:52;;;;;;;0.20;0.20;;;;;;;;;;5052153;28;20850;-68
2021/10/14 10:16:22;;;;;;;0.20;0.20;;;;;;;;;;5052510;28;20800;-68
2021/10/14 10:19:08;;;;;;;0.20;0.20;;;;;;;;;;5050776;28;20429;-67
2021/10/14 10:21:38;;;;;;;0.20;0.20;;;;;;;;;;5049734;28;20516;-67
2021/10/14 10:24:04;;;;;;;0.20;0.20;;;;;;;;;;5052008;28;20427;-67
2021/10/14 10:26:36;;;;;;;0.20;0.20;;;;;;;;;;5052435;28;20498;-67
2021/10/14 10:29:14;;;;;;;0.20;0.20;;;;;;;;;;5050680;28;20411;-67
2021/10/14 10:31:48;;;;;;;0.20;0.20;;;;;;;;;;5051695;28;20436;-67
2021/10/14 10:35:14;;;;;;;0.20;0.20;;;;;;;;;;5051571;28;20824;-67
2021/10/14 10:37:22;;;;;;;0.20;0.20;;;;;;;;;;5043875;28;20872;-68
2021/10/14 10:39:51;;;;;;;0.20;0.20;;;;;;;;;;5051840;28;20421;-68
2021/10/14 10:42:17;;;;;;;0.20;0.20;;;;;;;;;;5051758;28;20912;-67
2021/10/14 10:44:43;;;;;;;0.20;0.20;;;;;;;;;;5050045;28;20419;-67
2021/10/14 10:47:28;;;;;;;0.20;0.20;;;;;;;;;;5051754;28;20443;-67
2021/10/14 10:49:55;;;;;;;0.20;0.20;;;;;;;;;;5051415;28;20953;-67
2021/10/14 10:52:31;;;;;;;0.20;0.20;;;;;;;;;;5051593;28;20382;-67
2021/10/14 10:54:58;;;;;;;0.20;0.20;;;;;;;;;;5051057;28;20485;-67
2021/10/14 10:57:44;;;;;;;0.20;0.20;;;;;;;;;;5050348;28;20410;-67
2021/10/14 11:00:10;;;;;;;0.20;0.20;;;;;;;;;;5051198;28;20516;-67
2021/10/14 11:02:36;;;;;;;0.20;0.20;;;;;;;;;;5051221;28;20985;-67
2021/10/14 11:05:02;;;;;;;0.20;0.20;;;;;;;;;;5051217;28;20509;-67
2021/10/14 11:07:28;;;;;;;0.30;0.30;;;;;;;;;;5050148;28;20923;-67
2021/10/14 11:09:54;;;;;;;0.30;0.30;;;;;;;;;;5050224;28;20389;-67
2021/10/14 11:12:20;;;;;;;0.30;0.30;;;;;;;;;;5049918;28;20476;-67
2021/10/14 11:14:46;;;;;;;0.20;0.20;;;;;;;;;;5050792;28;20448;-67
2021/10/14 11:17:18;;;;;;;0.20;0.20;;;;;;;;;;5051053;28;20781;-67
2021/10/14 11:19:45;;;;;;;0.20;0.20;;;;;;;;;;5051606;28;20429;-67
2021/10/14 11:22:12;;;;;;;0.20;0.20;;;;;;;;;;5051396;28;20465;-67
2021/10/14 11:24:42;;;;;;;0.20;0.20;;;;;;;;;;5051423;28;20468;-67
2021/10/14 11:27:18;;;;;;;0.20;0.20;;;;;;;;;;5051222;28;20415;-68
2021/10/14 11:29:45;;;;;;;0.30;0.30;;;;;;;;;;5049783;28;20884;-68
2021/10/14 11:32:17;;;;;;;0.20;0.20;;;;;;;;;;5051373;28;20460;-68
2021/10/14 11:34:43;;;;;;;0.20;0.20;;;;;;;;;;5051466;28;20481;-67
2021/10/14 11:37:11;;;;;;;0.20;0.20;;;;;;;;;;5050594;28;20413;-68
2021/10/14 11:39:41;;;;;;;0.20;0.20;;;;;;;;;;5050890;28;20420;-67
2021/10/14 11:42:11;;;;;;;0.20;0.20;;;;;;;;;;5051131;28;20455;-67
2021/10/14 11:44:46;;;;;;;0.20;0.20;;;;;;;;;;5049966;28;20430;-67
2021/10/14 11:47:16;;;;;;;0.30;0.30;;;;;;;;;;5051400;28;20380;-67
2021/10/14 11:49:42;;;;;;;0.30;0.30;;;;;;;;;;5052366;28;20410;-67
2021/10/14 11:52:09;;;;;;;0.20;0.20;;;;;;;;;;5054010;28;20778;-67
2021/10/14 11:54:36;;;;;;;0.20;0.20;;;;;;;;;;5082504;22;20464;-66
2021/10/14 11:57:03;;;;;;;0.20;0.20;;;;;;;;;;5055498;28;20474;-66
2021/10/14 11:59:30;;;;;;;0.30;0.30;;;;;;;;;;5056300;28;20390;-66
2021/10/14 12:01:59;;;;;;;0.20;0.20;;;;;;;;;;5054906;28;20398;-66
2021/10/14 12:04:26;;;;;;;0.20;0.20;;;;;;;;;;5055521;28;20429;-66
2021/10/14 12:06:53;;;;;;;0.20;0.20;;;;;;;;;;5055390;28;20392;-66
2021/10/14 12:09:20;;;;;;;0.20;0.20;;;;;;;;;;5055647;28;20825;-66
2021/10/14 12:11:46;;;;;;;0.20;0.20;;;;;;;;;;5055303;28;20785;-66
2021/10/14 12:14:12;;;;;;;0.20;0.20;;;;;;;;;;5053245;28;20440;-66
2021/10/14 12:16:38;;;;;;;0.20;0.20;;;;;;;;;;5055246;28;20410;-66
2021/10/14 12:19:14;;;;;;;0.20;0.20;;;;;;;;;;5055226;28;20392;-66
2021/10/14 12:21:43;;;;;;;0.20;0.20;;;;;;;;;;5054966;28;20496;-66
2021/10/14 12:24:10;;;;;;;0.20;0.20;;;;;;;;;;5054756;28;20381;-66
2021/10/14 12:26:40;;;;;;;0.20;0.20;;;;;;;;;;5055010;28;20430;-66
2021/10/14 12:29:24;;;;;;;0.30;0.30;;;;;;;;;;5055119;28;20536;-66
2021/10/14 12:32:02;;;;;;;0.30;0.30;;;;;;;;;;5054885;28;20435;-66
2021/10/14 12:34:38;;;;;;;0.20;0.20;;;;;;;;;;5054926;28;20401;-65
2021/10/14 12:37:08;;;;;;;0.30;0.30;;;;;;;;;;5053522;28;20430;-66
2021/10/14 12:39:34;;;;;;;0.30;0.30;;;;;;;;;;5053411;28;20969;-66
2021/10/14 12:42:00;;;;;;;0.30;0.30;;;;;;;;;;5054636;28;20779;-65
2021/10/14 12:44:42;;;;;;;0.30;0.30;;;;;;;;;;5054232;28;20400;-67
2021/10/14 12:47:33;;;;;;;0.30;0.30;;;;;;;;;;5054066;28;20409;-67
2021/10/14 12:50:17;;;;;;;0.30;0.30;;;;;;;;;;5054943;28;20439;-67
2021/10/14 12:52:43;;;;;;;0.30;0.30;;;;;;;;;;5054709;28;20392;-67
2021/10/14 12:55:10;;;;;;;0.30;0.30;;;;;;;;;;5054693;28;20825;-67
2021/10/14 12:57:36;;;;;;;0.30;0.30;;;;;;;;;;5054466;28;20418;-66
2021/10/14 13:00:03;;;;;;;0.30;0.30;;;;;;;;;;5054241;28;20461;-66
2021/10/14 13:02:29;;;;;;;0.30;0.30;;;;;;;;;;5055135;28;20410;-66
2021/10/14 13:04:55;;;;;;;0.30;0.30;;;;;;;;;;5055357;28;20484;-66
2021/10/14 13:07:21;;;;;;;0.30;0.30;;;;;;;;;;5055158;28;20397;-66
2021/10/14 13:09:47;;;;;;;0.30;0.30;;;;;;;;;;5052879;28;20452;-66
2021/10/14 13:12:13;;;;;;;0.30;0.30;;;;;;;;;;5054402;28;20385;-66
2021/10/14 13:14:39;;;;;;;0.30;0.30;;;;;;;;;;5054301;28;20431;-67
2021/10/14 13:17:06;;;;;;;0.30;0.30;;;;;;;;;;5054164;28;20392;-66
2021/10/14 13:19:32;;;;;;;0.30;0.30;;;;;;;;;;5053963;28;20398;-66
2021/10/14 13:21:58;;;;;;;0.30;0.30;;;;;;;;;;5054012;28;20464;-66
2021/10/14 13:24:24;;;;;;;0.30;0.30;;;;;;;;;;5054118;28;20494;-66
2021/10/14 13:26:51;;;;;;;0.30;0.30;;;;;;;;;;5053766;28;20460;-66
2021/10/14 13:29:17;;;;;;;0.30;0.30;;;;;;;;;;5053943;28;20436;-66
2021/10/14 13:31:44;;;;;;;0.30;0.30;;;;;;;;;;5052839;28;20437;-66
2021/10/14 13:34:12;;;;;;;0.30;0.30;;;;;;;;;;5053928;28;20418;-66
2021/10/14 13:36:39;;;;;;;0.30;0.30;;;;;;;;;;5052832;28;20453;-66
2021/10/14 13:39:05;;;;;;;0.30;0.30;;;;;;;;;;5054069;28;20414;-66
2021/10/14 13:41:31;;;;;;;0.30;0.30;;;;;;;;;;5053013;28;20439;-66
2021/10/14 13:46:29;;;;;;;0.30;0.30;;;;;;;;;;5053689;28;20450;-66
2021/10/14 13:48:55;;;;;;;0.30;0.30;;;;;;;;;;5053597;28;20385;-66
2021/10/14 13:51:21;;;;;;;0.30;0.30;;;;;;;;;;5053432;28;20502;-66
2021/10/14 13:53:47;;;;;;;0.30;0.30;;;;;;;;;;5052794;28;20409;-66
2021/10/14 13:56:13;;;;;;;0.30;0.30;;;;;;;;;;5053300;28;20465;-66
2021/10/14 13:58:39;;;;;;;0.40;0.40;;;;;;;;;;5053624;28;20506;-66
2021/10/14 14:01:05;;;;;;;0.30;0.30;;;;;;;;;;5053092;28;20878;-66
2021/10/14 14:03:31;;;;;;;0.30;0.30;;;;;;;;;;5053488;28;20829;-66
2021/10/14 14:05:57;;;;;;;0.30;0.30;;;;;;;;;;5052359;28;20498;-66
2021/10/14 14:08:23;;;;;;;0.30;0.30;;;;;;;;;;5053133;28;20826;-66
2021/10/14 14:10:49;;;;;;;0.30;0.30;;;;;;;;;;5052984;28;20449;-66
2021/10/14 14:13:15;;;;;;;0.40;0.40;;;;;;;;;;5052079;28;20407;-66
2021/10/14 14:15:42;;;;;;;0.30;0.30;;;;;;;;;;5052302;28;20430;-66
2021/10/14 14:18:09;;;;;;;0.30;0.30;;;;;;;;;;5052774;28;20976;-66
2021/10/14 14:20:36;;;;;;;0.30;0.30;;;;;;;;;;5052568;28;20461;-66
2021/10/14 14:23:03;;;;;;;0.30;0.30;;;;;;;;;;5051412;28;20433;-66
2021/10/14 14:25:29;;;;;;;0.30;0.30;;;;;;;;;;5052549;28;20392;-66
2021/10/14 14:27:55;;;;;;;0.30;0.30;;;;;;;;;;5052408;28;20462;-66
2021/10/14 14:30:21;;;;;;;0.30;0.30;;;;;;;;;;5052145;28;20529;-66
2021/10/14 14:32:47;;;;;;;0.30;0.30;;;;;;;;;;5052561;28;20928;-66
2021/10/14 14:35:13;;;;;;;0.30;0.30;;;;;;;;;;5052678;28;20427;-66
2021/10/14 14:37:39;;;;;;;0.30;0.30;;;;;;;;;;5052026;28;20415;-66
2021/10/14 14:40:06;;;;;;;0.40;0.40;;;;;;;;;;5051945;28;20457;-66
2021/10/14 14:42:32;;;;;;;0.30;0.30;;;;;;;;;;5051680;28;20513;-67
2021/10/14 14:44:58;;;;;;;0.30;0.30;;;;;;;;;;5052070;28;20430;-66